Data for 11/06/2014

Time Sea-Level Adjusted Pressure Absolute Pressure Temperature Relative Humidity Dew Point   
(mb) (inHg) (mb) (inHg) (C) (F) (%) (C) (F)
00:05 1028 30.36 857 25.31 5.3 41.5 51 -4 24.8
00:10 1028 30.36 857 25.31 4.9 40.9 52 -4 24.8
00:15 1028 30.36 857 25.31 4.8 40.6 52 -4.2 24.4
00:20 1028 30.36 857 25.31 5.3 41.5 50 -4.2 24.4
00:25 1028 30.36 857 25.31 5.4 41.8 51 -4 24.8
00:30 1028 30.36 857 25.31 5.2 41.3 51 -4.1 24.5
00:35 1028 30.36 857 25.31 5 40.9 52 -4 24.8
00:40 1028 30.36 857 25.31 4.6 40.4 53 -4 24.8
00:45 1028 30.36 857 25.31 4.5 40.1 54 -3.9 24.9
00:50 1028 30.36 857 25.31 4.3 39.8 55 -4 24.8
00:55 1028 30.36 857 25.31 4.5 40 53 -4.3 24.3
01:00 1028 30.36 857 25.31 4.7 40.4 53 -4 24.7
01:05 1028 30.36 857 25.31 4.7 40.4 53 -4 24.8
01:10 1028 30.36 857 25.31 4.5 40 54 -4 24.9
01:15 1028 30.36 857 25.31 4.2 39.6 55 -3.9 25
01:20 1028 30.36 857 25.31 4.2 39.5 55 -4 24.8
01:25 1028 30.36 857 25.31 4.2 39.6 55 -3.9 24.9
01:30 1027 30.33 857 25.31 4.3 39.7 55 -4 24.7
01:35 1027 30.33 857 25.31 4.3 39.7 54 -4.2 24.4
01:40 1027 30.33 857 25.31 4.7 40.4 52 -4.3 24.3
01:45 1027 30.33 857 25.31 5.2 41.3 51 -4.2 24.5
01:50 1027 30.33 857 25.31 5.4 41.7 50 -4.1 24.6
01:55 1027 30.33 857 25.31 5.3 41.5 52 -3.8 25.2
02:00 1027 30.33 856 25.28 4.7 40.4 54 -3.8 25.1
02:05 1027 30.33 856 25.28 4.4 40 55 -3.9 24.9
02:10 1027 30.33 856 25.28 4.6 40.2 54 -3.9 25
02:15 1027 30.33 856 25.28 4.5 40.1 54 -3.9 24.9
02:20 1027 30.33 856 25.28 4.5 40.1 55 -3.9 25
02:25 1027 30.33 856 25.28 4.5 40.1 54 -3.9 25
02:30 1027 30.33 856 25.28 4.4 39.8 56 -3.6 25.6
02:35 1027 30.33 856 25.28 3.9 39 57 -3.8 25.1
02:40 1027 30.33 856 25.28 4 39.2 56 -3.9 24.9
02:45 1027 30.33 856 25.28 4.1 39.3 56 -3.8 25.1
02:50 1027 30.33 856 25.28 4.1 39.3 57 -3.7 25.4
02:55 1027 30.33 856 25.28 3.9 39.1 58 -3.6 25.5
03:00 1027 30.33 856 25.28 4 39.3 57 -3.8 25.2
03:05 1027 30.33 856 25.28 4.2 39.6 56 -3.7 25.4
03:10 1027 30.33 856 25.28 4.3 39.7 56 -3.6 25.4
03:15 1027 30.33 856 25.28 4.4 39.9 56 -3.6 25.5
03:20 1027 30.33 856 25.28 4.3 39.8 57 -3.5 25.7
03:25 1027 30.33 856 25.28 4.1 39.4 58 -3.4 26
03:30 1027 30.33 856 25.28 3.9 39 59 -3.4 25.9
03:35 1027 30.33 856 25.28 3.9 39 59 -3.3 26
03:40 1027 30.33 856 25.28 3.8 38.8 60 -3.3 26.1
03:45 1026 30.3 856 25.28 4 39.2 59 -3.4 25.9
03:50 1026 30.3 856 25.28 4.3 39.7 57 -3.4 25.9
03:55 1026 30.3 856 25.28 4.6 40.3 56 -3.4 26
04:00 1026 30.3 855 25.25 4.7 40.5 57 -3.2 26.3
04:05 1026 30.3 855 25.25 4.7 40.5 57 -3.1 26.4
04:10 1026 30.3 855 25.25 4.5 40.1 58 -3.1 26.5
04:15 1026 30.3 855 25.25 4.5 40.1 57 -3.2 26.2
04:20 1026 30.3 855 25.25 4.7 40.5 57 -3.2 26.3
04:25 1026 30.3 855 25.25 4.8 40.6 57 -2.9 26.8
04:30 1026 30.3 855 25.25 4.6 40.2 57 -3.1 26.4
04:35 1026 30.3 855 25.25 4.8 40.6 57 -2.9 26.8
04:40 1026 30.3 855 25.25 4.7 40.5 58 -2.8 26.9
04:45 1026 30.3 855 25.25 4.5 40.2 59 -2.8 26.9
04:50 1026 30.3 855 25.25 4.5 40.1 59 -2.8 27
04:55 1026 30.3 855 25.25 4.5 40.1 59 -2.7 27.1
05:00 1026 30.3 855 25.25 4.5 40 60 -2.7 27.2
05:05 1026 30.3 855 25.25 4.5 40.1 59 -2.7 27.1
05:10 1026 30.3 855 25.25 4.8 40.7 58 -2.8 27
05:15 1026 30.3 855 25.25 5.1 41.1 57 -2.7 27.2
05:20 1026 30.3 855 25.25 5.2 41.3 57 -2.5 27.4
05:25 1026 30.3 855 25.25 5.1 41.2 57 -2.7 27.2
05:30 1026 30.3 855 25.25 5 41 58 -2.6 27.4
05:35 1026 30.3 855 25.25 4.7 40.5 59 -2.6 27.3
05:40 1026 30.3 855 25.25 4.7 40.5 59 -2.6 27.2
05:45 1026 30.3 855 25.25 4.7 40.5 59 -2.5 27.5
05:50 1026 30.3 855 25.25 4.5 40.1 60 -2.6 27.3
05:55 1026 30.3 855 25.25 4.5 40.2 60 -2.6 27.3
06:00 1026 30.3 855 25.25 4.5 40.1 61 -2.5 27.6
06:05 1026 30.3 855 25.25 4.2 39.6 61 -2.6 27.2
06:10 1026 30.3 855 25.25 3.9 39 63 -2.6 27.3
06:15 1026 30.3 855 25.25 3.6 38.4 64 -2.7 27.2
06:20 1026 30.3 855 25.25 3.3 37.9 65 -2.6 27.3
06:25 1026 30.3 855 25.25 3.1 37.7 66 -2.6 27.3
06:30 1025 30.27 855 25.25 3.3 37.9 66 -2.5 27.6
06:35 1025 30.27 855 25.25 3.1 37.6 65 -2.8 27
06:40 1025 30.27 855 25.25 4.5 40 60 -2.7 27.2
06:45 1025 30.27 854 25.22 4.7 40.5 60 -2.4 27.7
06:50 1025 30.27 854 25.22 4.5 40 61 -2.5 27.6
06:55 1025 30.27 854 25.22 4.8 40.6 58 -2.7 27.1
07:00 1025 30.27 854 25.22 5.4 41.7 57 -2.5 27.5
07:05 1025 30.27 854 25.22 5.3 41.6 57 -2.4 27.7
07:10 1025 30.27 854 25.22 5 41.1 59 -2.4 27.7
07:15 1025 30.27 854 25.22 4.9 40.7 59 -2.6 27.4
07:20 1025 30.27 854 25.22 4.9 40.9 59 -2.3 27.8
07:25 1025 30.27 854 25.22 4.5 40.1 61 -2.3 27.9
07:30 1025 30.27 854 25.22 4.6 40.3 60 -2.4 27.7
07:35 1025 30.27 854 25.22 4.9 40.8 59 -2.5 27.5
07:40 1025 30.27 854 25.22 4.9 40.8 60 -2.3 27.8
07:45 1025 30.27 854 25.22 5.1 41.2 59 -2.3 27.8
07:50 1025 30.27 854 25.22 5.1 41.2 59 -2.3 27.9
07:55 1025 30.27 854 25.22 4.8 40.7 60 -2.2 28
08:00 1025 30.27 854 25.22 4.6 40.3 61 -2.3 27.9
08:05 1025 30.27 854 25.22 4.7 40.5 60 -2.3 27.8
08:10 1025 30.27 854 25.22 4.4 39.8 63 -2.1 28.3
08:15 1025 30.27 854 25.22 4.2 39.5 61 -2.6 27.4
08:20 1025 30.27 854 25.22 4.4 39.9 61 -2.4 27.6
08:25 1025 30.27 854 25.22 4.2 39.5 62 -2.5 27.6
08:30 1025 30.27 854 25.22 4.3 39.7 62 -2.3 27.9
08:35 1025 30.27 854 25.22 3.8 38.9 64 -2.3 27.9
08:40 1025 30.27 854 25.22 3.5 38.3 66 -2.2 28
08:45 1025 30.27 854 25.22 3.6 38.5 65 -2.4 27.7
08:50 1025 30.27 854 25.22 3.7 38.6 64 -2.5 27.5
08:55 1025 30.27 854 25.22 3.7 38.6 65 -2.3 27.9
09:00 1025 30.27 854 25.22 4 39.1 61 -2.8 27
09:05 1025 30.27 854 25.22 4.7 40.5 61 -2.3 27.9
09:10 1025 30.27 854 25.22 4.7 40.4 61 -2.1 28.1
09:15 1025 30.27 854 25.22 4.6 40.2 60 -2.5 27.5
09:20 1025 30.27 854 25.22 4.8 40.6 60 -2.4 27.7
09:25 1025 30.27 854 25.22 5 40.9 59 -2.3 27.9
09:30 1025 30.27 854 25.22 5 40.9 60 -2.1 28.1
09:35 1025 30.27 854 25.22 4.8 40.7 60 -2.2 28
09:40 1025 30.27 854 25.22 5 41 60 -2.2 28
09:45 1024 30.24 854 25.22 5.2 41.3 58 -2.3 27.9
09:50 1025 30.27 854 25.22 5.4 41.7 59 -2 28.3
09:55 1025 30.27 854 25.22 5.4 41.8 58 -2.1 28.2
10:00 1025 30.27 854 25.22 5.6 42 58 -2.1 28.2
10:05 1025 30.27 854 25.22 5.8 42.4 56 -2.2 28
10:10 1025 30.27 854 25.22 6.2 43.1 55 -2.1 28.2
10:15 1025 30.27 854 25.22 6.9 44.3 53 -1.9 28.5
10:20 1024 30.24 854 25.22 7.4 45.3 52 -1.9 28.6
10:25 1024 30.24 854 25.22 7.9 46.2 51 -1.6 29.1
10:30 1024 30.24 854 25.22 7.6 45.6 52 -1.5 29.2
10:35 1024 30.24 854 25.22 7.7 45.9 51 -1.7 28.9
10:40 1024 30.24 854 25.22 8 46.4 50 -1.8 28.8
10:45 1024 30.24 854 25.22 8.4 47.2 48 -1.9 28.5
10:50 1024 30.24 853 25.19 8.6 47.6 48 -1.8 28.8
10:55 1024 30.24 853 25.19 8.6 47.6 48 -1.8 28.7
11:00 1024 30.24 853 25.19 8.1 46.5 49 -1.9 28.6
11:05 1024 30.24 853 25.19 8.3 46.9 49 -1.9 28.6
11:10 1024 30.24 853 25.19 8.6 47.5 47 -2.1 28.2
11:15 1024 30.24 853 25.19 8.4 47.1 48 -1.9 28.5
11:20 1024 30.24 853 25.19 8.3 47 48 -2 28.4
11:25 1024 30.24 853 25.19 8.6 47.4 46 -2.3 27.9
11:30 1024 30.24 853 25.19 8.8 47.8 47 -2 28.5
11:35 1024 30.24 853 25.19 8.6 47.5 48 -1.7 28.9
11:40 1024 30.24 853 25.19 8.6 47.4 47 -2 28.5
11:45 1024 30.24 853 25.19 8.9 48.1 45 -2.3 27.8
11:50 1024 30.24 853 25.19 9.2 48.5 45 -2 28.3
11:55 1024 30.24 853 25.19 9.2 48.5 45 -2.1 28.3
12:00 1024 30.24 853 25.19 9.7 49.4 41 -2.8 27
12:05 1024 30.24 853 25.19 10.3 50.5 40 -2.6 27.3
12:10 1023 30.21 853 25.19 10.4 50.8 41 -2.2 28.1
12:15 1023 30.21 853 25.19 10.3 50.6 42 -2.1 28.3
12:20 1023 30.21 853 25.19 11 51.7 39 -2.3 27.9
12:25 1023 30.21 853 25.19 11.6 52.8 38 -2.3 27.9
12:30 1023 30.21 853 25.19 11.5 52.7 38 -2.2 28.1
12:35 1023 30.21 852 25.16 11 51.8 42 -1.5 29.3
12:40 1023 30.21 852 25.16 10.3 50.6 43 -1.8 28.8
12:45 1023 30.21 852 25.16 10.1 50.2 43 -1.8 28.7
12:50 1023 30.21 852 25.16 10.6 51 43 -1.5 29.3
12:55 1023 30.21 852 25.16 10.2 50.4 43 -1.6 29.1
13:00 1022 30.18 852 25.16 10.2 50.4 43 -1.8 28.7
13:05 1022 30.18 851 25.13 10.6 51.1 42 -1.9 28.7
13:10 1022 30.18 851 25.13 10.9 51.6 41 -1.7 29
13:15 1022 30.18 851 25.13 10.8 51.5 41 -1.7 28.9
13:20 1022 30.18 851 25.13 10.7 51.3 42 -1.5 29.2
13:25 1022 30.18 851 25.13 10.8 51.4 42 -1.7 28.9
13:30 1022 30.18 851 25.13 10.7 51.2 43 -1.4 29.4
13:35 1021 30.15 851 25.13 11 51.7 42 -1.4 29.6
13:40 1021 30.15 851 25.13 11.2 52.2 42 -1.1 30
13:45 1021 30.15 850 25.1 11.7 53 42 -0.8 30.6
13:50 1021 30.15 850 25.1 11.6 52.9 42 -0.9 30.4
13:55 1021 30.15 850 25.1 12 53.7 40 -1 30.2
14:00 1021 30.15 850 25.1 12.5 54.4 39 -1.2 29.9
14:05 1021 30.15 850 25.1 13.3 56 37 -1 30.2
14:10 1021 30.15 850 25.1 14.1 57.4 35 -1.1 29.9
14:15 1021 30.15 850 25.1 14.5 58.1 34 -0.9 30.4
14:20 1020 30.12 850 25.1 14.6 58.3 34 -0.8 30.5
14:25 1020 30.12 850 25.1 14.7 58.4 34 -0.7 30.7
14:30 1020 30.12 850 25.1 14.7 58.4 34 -0.9 30.4
14:35 1020 30.12 849 25.07 14.7 58.4 34 -1 30.3
14:40 1020 30.12 849 25.07 15 59 33 -1.1 30.1
14:45 1020 30.12 849 25.07 15.3 59.5 33 -0.9 30.4
14:50 1020 30.12 849 25.07 15.2 59.3 34 -0.6 30.9
14:55 1020 30.12 849 25.07 15.1 59.2 33 -0.9 30.3
15:00 1020 30.12 849 25.07 15.4 59.7 32 -1 30.1
15:05 1020 30.12 849 25.07 15.5 59.9 32 -1 30.1
15:10 1020 30.12 849 25.07 15.2 59.4 33 -1 30.1
15:15 1020 30.12 849 25.07 15 58.9 33 -1.2 29.8
15:20 1020 30.12 849 25.07 15 59 33 -0.9 30.4
15:25 1020 30.12 849 25.07 14.5 58 34 -1.2 29.9
15:30 1019 30.09 849 25.07 14.4 57.9 36 -0.4 31.2
15:35 1019 30.09 849 25.07 13.8 56.8 37 -0.6 31
15:40 1019 30.09 848 25.04 13.8 56.8 39 0.2 32.3
15:45 1019 30.09 848 25.04 13.4 56.1 40 0.1 32.1
15:50 1019 30.09 848 25.04 13.5 56.3 40 0.3 32.6
15:55 1019 30.09 848 25.04 13.4 56 41 0.4 32.8
16:00 1019 30.09 848 25.04 13.8 56.8 39 0.3 32.5
16:05 1019 30.09 848 25.04 13.8 56.8 40 0.4 32.7
16:10 1019 30.09 848 25.04 14 57.2 38 -0.1 31.9
16:15 1019 30.09 848 25.04 14.4 57.9 37 -0.1 31.9
16:20 1019 30.09 848 25.04 14.5 58.1 35 -0.6 31
16:25 1019 30.09 848 25.04 14.2 57.5 37 -0.1 31.8
16:30 1019 30.09 848 25.04 14.1 57.3 36 -0.5 31
16:35 1019 30.09 848 25.04 14.2 57.5 36 -0.6 31
16:40 1019 30.09 848 25.04 13.9 57.1 38 -0.2 31.7
16:45 1019 30.09 849 25.07 13.6 56.5 39 0.1 32.3
16:50 1019 30.09 849 25.07 13.4 56.2 40 0.3 32.6
16:55 1019 30.09 849 25.07 13.2 55.8 42 0.5 33
17:00 1019 30.09 848 25.04 13 55.3 46 1.7 35.1
17:05 1019 30.09 848 25.04 12.4 54.4 45 0.9 33.7
17:10 1019 30.09 848 25.04 12.4 54.3 46 1.2 34.2
17:15 1019 30.09 848 25.04 12.5 54.5 45 0.8 33.4
17:20 1019 30.09 848 25.04 13.2 55.8 42 0.8 33.5
17:25 1019 30.09 848 25.04 13.7 56.6 41 0.9 33.5
17:30 1019 30.09 848 25.04 13.3 55.9 44 1.4 34.6
17:35 1019 30.09 848 25.04 12.7 54.8 44 0.9 33.6
17:40 1019 30.09 848 25.04 12.7 54.8 43 0.6 33
17:45 1019 30.09 848 25.04 12.7 54.9 42 0.2 32.3
17:50 1019 30.09 848 25.04 12.8 55.1 42 0.4 32.7
17:55 1019 30.09 848 25.04 12.6 54.7 42 0.1 32.2
18:00 1019 30.09 848 25.04 12.4 54.2 40 -0.7 30.7
18:05 1019 30.09 848 25.04 12.3 54.1 41 -0.4 31.3
18:10 1019 30.09 848 25.04 12.3 54.2 40 -0.8 30.5
18:15 1019 30.09 848 25.04 12.4 54.2 39 -1.3 29.7
18:20 1018 30.06 848 25.04 12.5 54.5 39 -1.1 30.1
18:25 1018 30.06 848 25.04 12.6 54.6 33 -3 26.6
18:30 1018 30.06 848 25.04 13.2 55.7 37 -1.2 29.8
18:35 1018 30.06 848 25.04 13 55.4 33 -2.9 26.7
18:40 1018 30.06 847 25.01 13.2 55.8 34 -2.1 28.2
18:45 1018 30.06 847 25.01 12.7 54.8 38 -1.2 29.9
18:50 1018 30.06 847 25.01 12.7 54.8 34 -2.8 26.9
18:55 1018 30.06 847 25.01 13 55.3 33 -2.7 27.1
19:00 1018 30.06 847 25.01 12.6 54.7 35 -2.6 27.4
19:05 1018 30.06 847 25.01 12.4 54.3 33 -3.3 26.1
19:10 1018 30.06 847 25.01 12.5 54.5 38 -1.3 29.6
19:15 1018 30.06 847 25.01 11.7 53.1 36 -2.6 27.2
19:20 1018 30.06 847 25.01 11.7 53 42 -0.7 30.8
19:25 1018 30.06 847 25.01 11.1 51.9 41 -1.6 29.2
19:30 1018 30.06 847 25.01 11.1 52 38 -2.5 27.5
19:35 1018 30.06 847 25.01 11.2 52.2 39 -2.2 28
19:40 1017 30.03 847 25.01 10.9 51.7 40 -2 28.3
19:45 1017 30.03 847 25.01 11 51.7 35 -3.9 25
19:50 1017 30.03 847 25.01 11.8 53.3 35 -3.1 26.4
19:55 1017 30.03 847 25.01 12.2 54 32 -3.9 25
20:00 1017 30.03 846 24.98 13.3 56 30 -3.7 25.3
20:05 1017 30.03 846 24.98 13.9 57.1 29 -3.9 24.9
20:10 1017 30.03 847 25.01 14.3 57.8 29 -3.2 26.2
20:15 1017 30.03 847 25.01 14.3 57.7 29 -3.6 25.6
20:20 1017 30.03 847 25.01 14.4 57.8 29 -3.4 25.9
20:25 1017 30.03 847 25.01 14.5 58 28 -3.6 25.5
20:30 1017 30.03 847 25.01 14.4 57.9 29 -3.4 25.8
20:35 1018 30.06 847 25.01 14.6 58.3 28 -3.8 25.2
20:40 1017 30.03 847 25.01 14.8 58.6 29 -3 26.7
20:45 1018 30.06 847 25.01 14.7 58.5 28 -3.7 25.4
20:50 1018 30.06 847 25.01 15 59 28 -3.5 25.7
20:55 1018 30.06 847 25.01 14.9 58.8 29 -3 26.7
21:00 1018 30.06 847 25.01 14.4 58 29 -3.1 26.4
21:05 1018 30.06 847 25.01 14.3 57.7 30 -2.9 26.7
21:10 1018 30.06 847 25.01 14.1 57.3 30 -3.3 26.1
21:15 1018 30.06 847 25.01 14 57.2 30 -3.4 25.9
21:20 1018 30.06 847 25.01 14.1 57.5 30 -3.3 26
21:25 1018 30.06 847 25.01 14.2 57.6 29 -3.3 26
21:30 1018 30.06 847 25.01 14.2 57.6 29 -3.6 25.5
21:35 1018 30.06 847 25.01 14.3 57.8 29 -3.4 25.9
21:40 1018 30.06 847 25.01 14.3 57.7 29 -3.3 26
21:45 1018 30.06 847 25.01 14 57.2 30 -3.2 26.2
21:50 1018 30.06 847 25.01 14 57.3 29 -3.6 25.6
21:55 1018 30.06 847 25.01 14.1 57.3 30 -3.2 26.2
22:00 1018 30.06 847 25.01 13.8 56.9 30 -3.3 26
22:05 1018 30.06 847 25.01 14 57.2 29 -3.5 25.8
22:10 1018 30.06 847 25.01 14.1 57.4 30 -3.3 26.1
22:15 1018 30.06 847 25.01 14 57.3 30 -3.1 26.4
22:20 1018 30.06 847 25.01 13.8 56.8 31 -3.1 26.4
22:25 1018 30.06 847 25.01 14.2 57.6 30 -2.9 26.8
22:30 1018 30.06 847 25.01 14.1 57.3 31 -2.9 26.9
22:35 1018 30.06 847 25.01 14.1 57.3 32 -2.4 27.7
22:40 1018 30.06 847 25.01 14.2 57.5 31 -2.8 27
22:45 1018 30.06 847 25.01 14.3 57.7 31 -2.7 27.1
22:50 1018 30.06 847 25.01 14.5 58.1 31 -2.5 27.6
22:55 1018 30.06 847 25.01 14.1 57.3 31 -2.6 27.3
23:00 1018 30.06 847 25.01 14 57.2 31 -2.7 27.1
23:05 1018 30.06 847 25.01 13.9 57 32 -2.5 27.6
23:10 1018 30.06 847 25.01 14 57.2 31 -2.9 26.7
23:15 1018 30.06 847 25.01 14.1 57.4 31 -2.8 27
23:20 1018 30.06 847 25.01 14.1 57.4 32 -2.4 27.7
23:25 1018 30.06 847 25.01 14.1 57.3 30 -3.1 26.5
23:30 1017 30.03 847 25.01 14.3 57.8 31 -2.4 27.6
23:35 1017 30.03 847 25.01 14 57.3 32 -2.5 27.4
23:40 1017 30.03 847 25.01 13.9 57 33 -2.2 28
23:45 1017 30.03 847 25.01 13.8 56.8 32 -2.4 27.6
23:50 1017 30.03 847 25.01 13.9 57.1 32 -2.2 28
23:55 1017 30.03 847 25.01 13.9 57 32 -2.5 27.5
24:00 1017 30.03 847 25.01 14.2 57.5 31 -2.8 27